createdAt,value
2022-08-23T00:01:23.971Z,101409.53
2022-08-23T00:03:52.226Z,101411.38
2022-08-23T00:06:19.402Z,101415.94
2022-08-23T00:08:48.432Z,101413.25
2022-08-23T00:11:35.245Z,101405.28
2022-08-23T00:14:08.640Z,101406.28
2022-08-23T00:16:35.937Z,101395.44
2022-08-23T00:19:05.302Z,101395.53
2022-08-23T00:21:31.980Z,101391.88
2022-08-23T00:23:58.885Z,101391.97
2022-08-23T00:26:26.187Z,101389.16
2022-08-23T00:28:53.308Z,101390.13
2022-08-23T00:31:20.068Z,101384.72
2022-08-23T00:33:46.790Z,101377.44
2022-08-23T00:36:13.728Z,101377.84
2022-08-23T00:38:40.778Z,101376.59
2022-08-23T00:41:07.880Z,101375.91
2022-08-23T00:43:56.233Z,101378.84
2022-08-23T00:46:57.501Z,101377.09
2022-08-23T00:49:24.605Z,101378.16
2022-08-23T00:52:01.970Z,101383.69
2022-08-23T00:54:30.360Z,101380.19
2022-08-23T00:56:58.449Z,101374.78
2022-08-23T00:59:25.270Z,101379.53
2022-08-23T01:01:52.634Z,101375.09
2022-08-23T01:04:19.687Z,101378.66
2022-08-23T01:07:24.636Z,101374.03
2022-08-23T01:09:53.749Z,101374.13
2022-08-23T01:12:32.796Z,101377.72
2022-08-23T01:15:23.354Z,101375.09
2022-08-23T01:18:02.508Z,101378.75
2022-08-23T01:20:33.388Z,101371.53
2022-08-23T01:23:05.367Z,101365.44
2022-08-23T01:25:33.057Z,101372.66
2022-08-23T01:28:00.595Z,101379.84
2022-08-23T01:30:32.788Z,101370.09
2022-08-23T01:33:02.924Z,101367.47
2022-08-23T01:35:39.653Z,101371.13
2022-08-23T01:38:07.639Z,101376.38
2022-08-23T01:40:35.403Z,101379.94
2022-08-23T01:43:02.365Z,101378.41
2022-08-23T01:45:30.679Z,101380.25
2022-08-23T01:47:58.171Z,101379.38
2022-08-23T01:50:26.533Z,101378.50
2022-08-23T01:52:53.647Z,101385.00
2022-08-23T01:55:22.031Z,101384.91
2022-08-23T01:57:51.837Z,101377.72
2022-08-23T02:00:21.564Z,101370.50
2022-08-23T02:02:48.549Z,101366.91
2022-08-23T02:05:18.880Z,101371.44
2022-08-23T02:07:47.436Z,101364.41
2022-08-23T02:10:14.758Z,101363.41
2022-08-23T02:12:41.671Z,101360.16
2022-08-23T02:15:12.975Z,101367.03
2022-08-23T02:17:42.703Z,101369.06
2022-08-23T02:20:09.808Z,101366.53
2022-08-23T02:22:37.742Z,101361.13
2022-08-23T02:25:04.727Z,101357.47
2022-08-23T02:27:31.462Z,101353.75
2022-08-23T02:29:58.655Z,101358.22
2022-08-23T02:32:26.969Z,101360.16
2022-08-23T02:37:36.299Z,101358.50
2022-08-23T02:40:06.231Z,101354.16
2022-08-23T02:42:33.408Z,101362.28
2022-08-23T02:45:01.384Z,101354.06
2022-08-23T02:47:29.859Z,101360.25
2022-08-23T02:50:08.529Z,101371.19
2022-08-23T02:52:35.823Z,101374.88
2022-08-23T02:55:02.790Z,101377.66
2022-08-23T02:57:31.517Z,101374.09
2022-08-23T02:59:59.398Z,101376.81
2022-08-23T03:02:26.345Z,101379.31
2022-08-23T03:04:53.203Z,101382.22
2022-08-23T03:07:19.992Z,101380.47
2022-08-23T03:09:46.876Z,101387.81
2022-08-23T03:12:13.962Z,101392.38
2022-08-23T03:14:46.656Z,101398.66
2022-08-23T03:17:14.439Z,101375.94
2022-08-23T03:19:41.430Z,101391.00
2022-08-23T03:22:08.549Z,101387.25
2022-08-23T03:24:36.371Z,101389.75
2022-08-23T03:27:04.239Z,101391.69
2022-08-23T03:29:32.080Z,101396.91
2022-08-23T03:32:01.421Z,101395.06
2022-08-23T03:34:31.596Z,101403.19
2022-08-23T03:36:59.199Z,101409.47
2022-08-23T03:39:26.773Z,101404.28
2022-08-23T03:41:55.077Z,101401.66
2022-08-23T03:44:21.831Z,101407.06
2022-08-23T03:46:50.679Z,101405.41
2022-08-23T03:49:17.516Z,101400.97
2022-08-23T03:51:50.891Z,101404.53
2022-08-23T03:54:17.646Z,101411.81
2022-08-23T03:57:03.163Z,101410.03
2022-08-23T03:59:35.088Z,101405.72
2022-08-23T04:02:03.760Z,101410.16
2022-08-23T04:04:30.825Z,101401.16
2022-08-23T04:07:36.335Z,101402.06
2022-08-23T04:10:03.855Z,101406.56
2022-08-23T04:12:36.166Z,101405.78
2022-08-23T04:15:05.282Z,101405.78
2022-08-23T04:17:36.627Z,101408.63
2022-08-23T04:20:05.034Z,101407.91
2022-08-23T04:22:34.268Z,101411.47
2022-08-23T04:25:03.161Z,101405.13
2022-08-23T04:27:30.097Z,101416.91
2022-08-23T04:29:56.856Z,101401.63
2022-08-23T04:32:28.172Z,101404.53
2022-08-23T04:34:57.136Z,101411.88
2022-08-23T04:37:23.854Z,101411.09
2022-08-23T04:40:09.800Z,101417.28
2022-08-23T04:42:42.378Z,101412.03
2022-08-23T04:45:09.583Z,101418.16
2022-08-23T04:47:41.482Z,101420.06
2022-08-23T04:50:09.829Z,101421.84
2022-08-23T04:52:51.392Z,101415.66
2022-08-23T04:55:18.102Z,101423.47
2022-08-23T04:57:49.136Z,101426.94
2022-08-23T05:00:20.052Z,101427.13
2022-08-23T05:02:53.205Z,101428.69
2022-08-23T05:05:20.878Z,101437.78
2022-08-23T05:07:48.188Z,101440.38
2022-08-23T05:10:16.763Z,101439.63
2022-08-23T05:12:50.765Z,101447.81
2022-08-23T05:15:20.008Z,101441.25
2022-08-23T05:17:50.647Z,101440.22
2022-08-23T05:20:17.692Z,101446.38
2022-08-23T05:22:45.220Z,101454.34
2022-08-23T05:25:52.912Z,101452.22
2022-08-23T05:28:34.766Z,101450.28
2022-08-23T05:31:05.167Z,101453.66
2022-08-23T05:33:40.712Z,101450.75
2022-08-23T05:36:08.718Z,101455.09
2022-08-23T05:38:35.696Z,101457.63
2022-08-23T05:41:05.284Z,101458.19
2022-08-23T05:43:33.194Z,101453.03
2022-08-23T05:46:05.147Z,101456.44
2022-08-23T05:48:37.139Z,101463.00
2022-08-23T05:51:16.089Z,101456.97
2022-08-23T05:53:43.719Z,101455.50
2022-08-23T05:56:20.638Z,101459.97
2022-08-23T05:58:49.447Z,101460.72
2022-08-23T06:01:17.688Z,101451.31
2022-08-23T06:03:44.856Z,101458.03
2022-08-23T06:06:13.181Z,101462.09
2022-08-23T06:08:40.346Z,101466.25
2022-08-23T06:11:10.943Z,101460.84
2022-08-23T06:13:47.015Z,101464.31
2022-08-23T06:16:15.461Z,101463.84
2022-08-23T06:18:44.657Z,101459.63
2022-08-23T06:21:31.807Z,101460.84
2022-08-23T06:23:58.621Z,101460.31
2022-08-23T06:26:31.676Z,101462.78
2022-08-23T06:29:02.723Z,101467.38
2022-08-23T06:31:48.905Z,101470.47
2022-08-23T06:34:26.926Z,101466.50
2022-08-23T06:37:15.298Z,101469.53
2022-08-23T06:40:00.696Z,101471.41
2022-08-23T06:42:59.589Z,101472.41
2022-08-23T06:45:36.306Z,101469.28
2022-08-23T06:48:03.717Z,101466.41
2022-08-23T06:50:32.617Z,101468.94
2022-08-23T06:53:18.112Z,101472.97
2022-08-23T06:55:57.911Z,101474.56
2022-08-23T06:58:30.428Z,101476.84
2022-08-23T07:01:44.531Z,101479.31
2022-08-23T07:04:24.567Z,101484.59
2022-08-23T07:07:11.598Z,101485.72
2022-08-23T07:09:40.030Z,101484.28
2022-08-23T07:12:07.681Z,101483.88
2022-08-23T07:14:38.200Z,101485.28
2022-08-23T07:17:05.399Z,101487.56
2022-08-23T07:19:34.612Z,101490.28
2022-08-23T07:22:02.994Z,101487.66
2022-08-23T07:24:33.610Z,101488.22
2022-08-23T07:27:06.484Z,101491.03
2022-08-23T07:29:38.996Z,101489.44
2022-08-23T07:32:06.383Z,101488.66
2022-08-23T07:34:33.777Z,101489.94
2022-08-23T07:37:01.723Z,101491.81
2022-08-23T07:39:31.827Z,101506.47
2022-08-23T07:42:01.288Z,101495.28
2022-08-23T07:44:43.610Z,101496.47
2022-08-23T07:47:10.596Z,101497.91
2022-08-23T07:49:37.578Z,101494.59
2022-08-23T07:52:04.700Z,101490.25
2022-08-23T07:54:31.644Z,101488.59
2022-08-23T07:57:16.025Z,101491.72
2022-08-23T08:00:08.931Z,101486.06
2022-08-23T08:02:56.968Z,101494.22
2022-08-23T08:05:32.697Z,101495.00
2022-08-23T08:08:00.440Z,101496.59
2022-08-23T08:10:27.889Z,101499.63
2022-08-23T08:12:55.865Z,101495.88
2022-08-23T08:15:24.177Z,101500.81
2022-08-23T08:17:58.552Z,101505.56
2022-08-23T08:20:48.368Z,101504.88
2022-08-23T08:23:50.288Z,101510.09
2022-08-23T08:26:35.698Z,101509.28
2022-08-23T08:29:03.124Z,101512.50
2022-08-23T08:31:30.336Z,101512.94
2022-08-23T08:33:57.501Z,101511.97
2022-08-23T08:36:36.964Z,101508.41
2022-08-23T08:39:10.427Z,101512.38
2022-08-23T08:42:26.406Z,101505.69
2022-08-23T08:45:01.103Z,101503.69
2022-08-23T08:47:40.556Z,101511.69
2022-08-23T08:50:23.865Z,101514.66
2022-08-23T08:53:09.198Z,101518.88
2022-08-23T08:56:10.627Z,101512.31
2022-08-23T08:58:48.246Z,101506.16
2022-08-23T09:01:19.565Z,101506.41
2022-08-23T09:03:46.951Z,101498.59
2022-08-23T09:06:34.922Z,101502.63
2022-08-23T09:09:25.176Z,101507.00
2022-08-23T09:12:01.585Z,101500.50
2022-08-23T09:14:38.076Z,101499.44
2022-08-23T09:17:12.973Z,101501.63
2022-08-23T09:19:40.353Z,101498.94
2022-08-23T09:22:16.544Z,101501.28
2022-08-23T09:24:43.482Z,101500.75
2022-08-23T09:27:16.541Z,101499.81
2022-08-23T09:29:56.374Z,101506.09
2022-08-23T09:32:35.854Z,101501.16
2022-08-23T09:35:07.236Z,101500.47
2022-08-23T09:37:48.850Z,101499.75
2022-08-23T09:40:45.689Z,101506.38
2022-08-23T09:43:22.071Z,101505.13
2022-08-23T09:45:48.743Z,101501.84
2022-08-23T09:48:33.857Z,101506.75
2022-08-23T09:51:25.150Z,101499.16
2022-08-23T09:54:14.099Z,101506.19
2022-08-23T09:56:45.467Z,101502.13
2022-08-23T09:59:42.747Z,101492.78
2022-08-23T10:02:18.572Z,101493.81
2022-08-23T10:05:08.153Z,101488.94
2022-08-23T10:08:01.663Z,101503.69
2022-08-23T10:10:50.892Z,101494.38
2022-08-23T10:13:22.018Z,101492.72
2022-08-23T10:16:11.156Z,101494.97
2022-08-23T10:19:08.714Z,101499.41
2022-08-23T10:22:02.411Z,101488.91
2022-08-23T10:24:37.692Z,101489.81
2022-08-23T10:28:04.864Z,101491.03
2022-08-23T10:30:59.819Z,101488.91
2022-08-23T10:33:36.129Z,101485.00
2022-08-23T10:36:21.536Z,101487.16
2022-08-23T10:38:59.828Z,101493.94
2022-08-23T10:41:51.444Z,101494.81
2022-08-23T10:44:21.164Z,101489.59
2022-08-23T10:47:06.022Z,101483.69
2022-08-23T10:49:36.812Z,101487.00
2022-08-23T10:52:05.930Z,101484.25
2022-08-23T10:54:46.405Z,101487.94
2022-08-23T10:57:18.231Z,101484.59
2022-08-23T10:59:46.806Z,101487.34
2022-08-23T11:02:42.849Z,101490.50
2022-08-23T11:05:27.265Z,101489.72
2022-08-23T11:08:02.204Z,101490.81
2022-08-23T11:10:39.365Z,101484.03
2022-08-23T11:13:13.366Z,101492.00
2022-08-23T11:15:45.747Z,101484.16
2022-08-23T11:18:45.078Z,101489.25
2022-08-23T11:21:17.506Z,101476.25
2022-08-23T11:23:59.627Z,101475.81
2022-08-23T11:26:29.689Z,101480.88
2022-08-23T11:29:22.457Z,101477.94
2022-08-23T11:32:15.129Z,101490.81
2022-08-23T11:34:48.079Z,101486.22
2022-08-23T11:37:23.400Z,101484.53
2022-08-23T11:40:00.532Z,101476.00
2022-08-23T11:42:42.649Z,101482.41
2022-08-23T11:45:37.763Z,101487.00
2022-08-23T11:48:10.691Z,101478.41
2022-08-23T11:51:15.684Z,101476.16
2022-08-23T11:53:46.588Z,101479.97
2022-08-23T11:56:35.033Z,101491.03
2022-08-23T11:59:24.510Z,101485.25
2022-08-23T12:01:51.322Z,101479.00
2022-08-23T12:04:37.774Z,101495.22
2022-08-23T12:07:12.381Z,101497.94
2022-08-23T12:09:51.992Z,101502.97
2022-08-23T12:12:33.654Z,101498.97
2022-08-23T12:15:12.013Z,101502.31
2022-08-23T12:17:42.385Z,101489.41
2022-08-23T12:20:16.209Z,101498.22
2022-08-23T12:23:06.988Z,101497.75
2022-08-23T12:25:35.114Z,101499.28
2022-08-23T12:28:31.676Z,101496.84
2022-08-23T12:31:22.042Z,101501.06
2022-08-23T12:34:09.788Z,101494.56
2022-08-23T12:36:46.611Z,101488.50
2022-08-23T12:39:27.500Z,101497.09
2022-08-23T12:42:01.593Z,101484.88
2022-08-23T12:44:30.113Z,101491.69
2022-08-23T12:47:14.474Z,101482.63
2022-08-23T12:49:42.085Z,101470.88
2022-08-23T12:52:11.648Z,101468.63
2022-08-23T12:54:41.821Z,101481.63
2022-08-23T12:57:16.032Z,101460.19
2022-08-23T13:00:16.755Z,101455.03
2022-08-23T13:02:58.010Z,101464.88
2022-08-23T13:05:32.563Z,101461.91
2022-08-23T13:08:01.352Z,101455.31
2022-08-23T13:10:28.289Z,101452.47
2022-08-23T13:12:55.272Z,101449.28
2022-08-23T13:15:42.393Z,101436.97
2022-08-23T13:18:09.772Z,101449.22
2022-08-23T13:20:36.894Z,101442.00
2022-08-23T13:23:15.383Z,101444.50
2022-08-23T13:25:43.013Z,101438.53
2022-08-23T13:28:28.267Z,101447.84
2022-08-23T13:31:13.292Z,101438.97
2022-08-23T13:33:41.185Z,101439.31
2022-08-23T13:36:17.644Z,101446.13
2022-08-23T13:38:44.541Z,101441.41
2022-08-23T13:41:27.364Z,101448.22
2022-08-23T13:43:55.096Z,101446.03
2022-08-23T13:46:29.968Z,101450.59
2022-08-23T13:49:19.556Z,101450.72
2022-08-23T13:54:53.211Z,101453.31
2022-08-23T13:57:21.150Z,101454.66
2022-08-23T13:59:54.196Z,101454.22
2022-08-23T14:02:22.694Z,101458.97
2022-08-23T14:04:50.016Z,101452.53
2022-08-23T14:07:17.155Z,101447.44
2022-08-23T14:09:44.091Z,101446.69
2022-08-23T14:12:27.611Z,101446.91
2022-08-23T14:14:56.141Z,101443.19
2022-08-23T14:17:22.886Z,101440.63
2022-08-23T14:22:36.601Z,101448.19
2022-08-23T14:25:04.546Z,101435.84
2022-08-23T14:27:31.515Z,101440.16
2022-08-23T14:29:58.468Z,101438.25
2022-08-23T14:32:25.627Z,101435.09
2022-08-23T14:34:52.437Z,101429.22
2022-08-23T14:38:02.939Z,101428.34
2022-08-23T14:40:06.732Z,101423.31
2022-08-23T14:42:33.708Z,101410.28
2022-08-23T14:45:00.588Z,101424.28
2022-08-23T14:47:27.839Z,101424.78
2022-08-23T14:49:54.878Z,101424.00
2022-08-23T14:52:22.495Z,101426.50
2022-08-23T14:54:49.550Z,101421.63
2022-08-23T14:57:17.295Z,101427.63
2022-08-23T14:59:43.980Z,101424.19
2022-08-23T15:02:12.718Z,101427.81
2022-08-23T15:04:40.464Z,101423.63
2022-08-23T15:07:22.467Z,101424.09
2022-08-23T15:09:51.773Z,101428.16
2022-08-23T15:15:12.798Z,101418.94
2022-08-23T15:17:52.693Z,101419.25
2022-08-23T15:20:25.887Z,101413.75
2022-08-23T15:22:55.351Z,101420.25
2022-08-23T15:25:24.921Z,101419.09
2022-08-23T15:27:52.141Z,101424.25
2022-08-23T15:30:19.242Z,101410.72
2022-08-23T15:32:52.265Z,101423.66
2022-08-23T15:35:19.974Z,101426.56
2022-08-23T15:37:48.541Z,101423.66
2022-08-23T15:40:15.714Z,101412.13
2022-08-23T15:42:42.800Z,101420.13
2022-08-23T15:45:10.745Z,101415.03
2022-08-23T15:47:46.097Z,101414.19
2022-08-23T15:50:13.073Z,101417.50
2022-08-23T15:52:42.562Z,101419.66
2022-08-23T15:55:09.510Z,101413.31
2022-08-23T15:57:43.315Z,101416.78
2022-08-23T16:00:11.702Z,101424.69
2022-08-23T16:03:06.469Z,101419.50
2022-08-23T16:05:28.450Z,101415.31
2022-08-23T16:07:57.800Z,101417.91
2022-08-23T16:10:28.153Z,101417.19
2022-08-23T16:12:55.687Z,101410.97
2022-08-23T16:15:22.646Z,101416.44
2022-08-23T16:17:49.527Z,101418.97
2022-08-23T16:20:17.632Z,101414.22
2022-08-23T16:22:44.555Z,101407.31
2022-08-23T16:25:11.833Z,101407.03
2022-08-23T16:27:38.612Z,101413.09
2022-08-23T16:30:06.497Z,101405.44
2022-08-23T16:32:33.485Z,101410.75
2022-08-23T16:35:00.296Z,101405.09
2022-08-23T16:37:26.992Z,101405.50
2022-08-23T16:39:53.797Z,101401.34
2022-08-23T16:42:20.550Z,101401.75
2022-08-23T16:44:47.411Z,101401.59
2022-08-23T16:47:15.644Z,101407.44
2022-08-23T16:49:43.304Z,101414.78
2022-08-23T16:52:13.449Z,101419.19
2022-08-23T16:54:40.323Z,101416.03
2022-08-23T16:57:07.175Z,101412.78
2022-08-23T16:59:39.728Z,101416.78
2022-08-23T17:02:10.747Z,101419.66
2022-08-23T17:04:37.966Z,101424.59
2022-08-23T17:07:04.915Z,101427.84
2022-08-23T17:09:31.733Z,101432.91
2022-08-23T17:11:58.693Z,101425.69
2022-08-23T17:14:26.258Z,101431.63
2022-08-23T17:16:53.225Z,101436.56
2022-08-23T17:19:20.132Z,101447.41
2022-08-23T17:21:47.158Z,101447.53
2022-08-23T17:24:13.863Z,101440.38
2022-08-23T17:26:40.725Z,101447.41
2022-08-23T17:29:09.559Z,101449.75
2022-08-23T17:31:37.050Z,101447.88
2022-08-23T17:34:04.596Z,101447.97
2022-08-23T17:36:36.015Z,101451.53
2022-08-23T17:39:07.858Z,101457.16
2022-08-23T17:41:35.380Z,101456.81
2022-08-23T17:44:03.971Z,101460.16
2022-08-23T17:46:30.818Z,101466.75
2022-08-23T17:48:57.940Z,101458.38
2022-08-23T17:51:24.992Z,101467.47
2022-08-23T17:53:51.846Z,101474.06
2022-08-23T17:56:18.734Z,101481.78
2022-08-23T17:58:45.665Z,101475.88
2022-08-23T18:01:12.735Z,101484.66
2022-08-23T18:03:39.584Z,101492.63
2022-08-23T18:06:12.511Z,101498.63
2022-08-23T18:08:44.451Z,101493.94
2022-08-23T18:11:11.424Z,101502.88
2022-08-23T18:13:38.433Z,101505.38
2022-08-23T18:16:05.990Z,101505.03
2022-08-23T18:18:32.973Z,101506.66
2022-08-23T18:21:05.340Z,101507.53
2022-08-23T18:23:32.112Z,101512.59
2022-08-23T18:25:58.795Z,101519.63
2022-08-23T18:28:25.695Z,101527.56
2022-08-23T18:30:57.713Z,101526.47
2022-08-23T18:33:31.422Z,101529.03
2022-08-23T18:35:59.358Z,101527.94
2022-08-23T18:38:26.059Z,101527.69
2022-08-23T18:40:52.797Z,101543.97
2022-08-23T18:43:23.059Z,101539.63
2022-08-23T18:45:53.906Z,101541.94
2022-08-23T18:48:22.379Z,101537.22
2022-08-23T18:50:50.201Z,101535.09
2022-08-23T18:53:18.951Z,101535.78
2022-08-23T18:55:46.372Z,101544.31
2022-08-23T18:58:13.426Z,101549.34
2022-08-23T19:00:41.900Z,101549.81
2022-08-23T19:03:09.131Z,101558.69
2022-08-23T19:05:42.152Z,101552.72
2022-08-23T19:08:10.748Z,101560.22
2022-08-23T19:10:37.851Z,101558.78
2022-08-23T19:13:05.301Z,101557.53
2022-08-23T19:15:34.209Z,101568.75
2022-08-23T19:18:02.111Z,101551.25
2022-08-23T19:20:28.971Z,101566.91
2022-08-23T19:22:57.055Z,101560.31
2022-08-23T19:25:24.356Z,101567.16
2022-08-23T19:27:51.112Z,101569.47
2022-08-23T19:30:18.007Z,101567.31
2022-08-23T19:32:45.320Z,101563.72
2022-08-23T19:35:13.921Z,101573.28
2022-08-23T19:37:40.742Z,101582.88
2022-08-23T19:40:08.485Z,101583.28
2022-08-23T19:42:37.172Z,101587.97
2022-08-23T19:45:05.098Z,101594.56
2022-08-23T19:47:32.083Z,101593.38
2022-08-23T19:49:58.892Z,101591.66
2022-08-23T19:52:28.806Z,101604.56
2022-08-23T19:55:00.582Z,101599.56
2022-08-23T19:57:33.538Z,101602.47
2022-08-23T20:00:01.263Z,101598.25
2022-08-23T20:02:32.427Z,101595.84
2022-08-23T20:04:59.231Z,101598.00
2022-08-23T20:07:26.102Z,101600.94
2022-08-23T20:09:52.822Z,101611.22
2022-08-23T20:12:19.699Z,101608.09
2022-08-23T20:14:49.634Z,101610.22
2022-08-23T20:17:17.394Z,101619.03
2022-08-23T20:19:44.288Z,101618.47
2022-08-23T20:22:29.577Z,101611.72
2022-08-23T20:24:56.500Z,101621.91
2022-08-23T20:27:25.355Z,101618.50
2022-08-23T20:30:01.660Z,101624.91
2022-08-23T20:32:29.065Z,101625.19
2022-08-23T20:34:55.736Z,101622.13
2022-08-23T20:37:22.467Z,101624.28
2022-08-23T20:39:49.375Z,101619.06
2022-08-23T20:42:16.443Z,101629.22
2022-08-23T20:44:43.202Z,101627.78
2022-08-23T20:47:10.402Z,101622.59
2022-08-23T20:49:37.262Z,101623.09
2022-08-23T20:52:04.695Z,101627.53
2022-08-23T20:54:31.716Z,101632.28
2022-08-23T20:56:58.539Z,101622.63
2022-08-23T20:59:26.229Z,101629.09
2022-08-23T21:01:53.169Z,101621.25
2022-08-23T21:04:20.295Z,101629.50
2022-08-23T21:06:50.080Z,101626.09
2022-08-23T21:09:22.558Z,101626.50
2022-08-23T21:11:52.235Z,101631.16
2022-08-23T21:14:20.831Z,101620.69
2022-08-23T21:16:47.754Z,101618.97
2022-08-23T21:19:14.934Z,101626.22
2022-08-23T21:21:41.799Z,101626.34
2022-08-23T21:24:09.626Z,101631.22
2022-08-23T21:26:37.318Z,101635.94
2022-08-23T21:29:05.382Z,101630.75
2022-08-23T21:31:32.221Z,101625.63
2022-08-23T21:34:00.643Z,101632.00
2022-08-23T21:36:27.690Z,101631.22
2022-08-23T21:38:54.684Z,101636.72
2022-08-23T21:41:37.737Z,101636.94
2022-08-23T21:44:06.801Z,101629.84
2022-08-23T21:46:33.971Z,101626.38
2022-08-23T21:49:00.759Z,101624.56
2022-08-23T21:51:28.044Z,101625.72
2022-08-23T21:53:55.007Z,101621.63
2022-08-23T21:56:21.929Z,101620.84
2022-08-23T21:58:50.664Z,101616.59
2022-08-23T22:01:18.753Z,101618.63
2022-08-23T22:03:45.753Z,101615.34
2022-08-23T22:06:15.240Z,101617.16
2022-08-23T22:08:43.100Z,101621.78
2022-08-23T22:11:11.932Z,101622.84
2022-08-23T22:13:39.492Z,101623.63
2022-08-23T22:16:07.226Z,101619.47
2022-08-23T22:18:34.547Z,101619.53
2022-08-23T22:21:02.043Z,101614.25
2022-08-23T22:23:30.241Z,101613.34
2022-08-23T22:26:01.842Z,101622.63
2022-08-23T22:28:31.307Z,101621.16
2022-08-23T22:31:05.661Z,101621.28
2022-08-23T22:33:32.705Z,101621.34
2022-08-23T22:36:08.527Z,101620.63
2022-08-23T22:38:35.399Z,101612.59
2022-08-23T22:41:02.143Z,101610.00
2022-08-23T22:43:28.882Z,101609.41
2022-08-23T22:45:58.482Z,101615.97
2022-08-23T22:48:29.211Z,101619.72
2022-08-23T22:51:15.258Z,101615.47
2022-08-23T22:53:45.480Z,101618.34
2022-08-23T22:56:14.286Z,101612.22
2022-08-23T22:58:42.112Z,101616.94
2022-08-23T23:01:12.929Z,101623.41
2022-08-23T23:03:41.445Z,101627.19
2022-08-23T23:06:09.212Z,101620.91
2022-08-23T23:08:35.924Z,101625.41
2022-08-23T23:11:05.964Z,101623.94
2022-08-23T23:13:33.406Z,101626.63
2022-08-23T23:16:03.513Z,101618.03
2022-08-23T23:18:30.447Z,101622.66
2022-08-23T23:20:59.693Z,101622.72
2022-08-23T23:23:27.605Z,101622.06
2022-08-23T23:25:54.346Z,101622.22
2022-08-23T23:28:21.886Z,101623.16
2022-08-23T23:30:50.670Z,101618.81
2022-08-23T23:33:18.571Z,101625.19
2022-08-23T23:35:45.717Z,101621.72
2022-08-23T23:38:12.749Z,101617.53
2022-08-23T23:40:39.779Z,101613.16
2022-08-23T23:43:07.105Z,101616.75
2022-08-23T23:45:37.754Z,101615.84
2022-08-23T23:48:08.398Z,101613.25
2022-08-23T23:50:35.716Z,101615.06
2022-08-23T23:53:02.731Z,101614.38
2022-08-23T23:55:29.701Z,101619.00
2022-08-23T23:57:56.511Z,101612.91
